Time;durP1;ratioP1;P1;durP2;ratioP2;P2;SDS_P1;SDS_P2;PMS_P1;PMS_P2;Temp;Humidity;BMP_temperature;BMP_pressure;BME280_temperature;BME280_humidity;BME280_pressure;Samples;Min_cycle;Max_cycle;Signal;HPM_P1;HPM_P2
2022/10/16 00:01:49;;;;;;;6.82;6.22;;;;;;;9.96;67.89;95557.47;5118984;28;20188;-68
2022/10/16 00:04:17;;;;;;;6.80;6.20;;;;;;;9.93;67.83;95553.41;5101909;28;20577;-69
2022/10/16 00:06:44;;;;;;;6.30;5.70;;;;;;;9.87;67.83;95557.50;5101586;28;20207;-68
2022/10/16 00:09:11;;;;;;;7.15;6.38;;;;;;;9.80;67.65;95562.75;5119234;28;20187;-69
2022/10/16 00:11:39;;;;;;;7.13;6.43;;;;;;;9.75;68.13;95566.50;5101268;28;20204;-69
2022/10/16 00:14:08;;;;;;;6.13;5.63;;;;;;;9.78;68.18;95565.03;5100979;28;20199;-69
2022/10/16 00:16:35;;;;;;;6.60;6.00;;;;;;;9.82;68.39;95564.03;5119294;28;20192;-69
2022/10/16 00:19:02;;;;;;;7.13;6.15;;;;;;;9.85;68.08;95562.56;5101119;28;20208;-69
2022/10/16 00:21:31;;;;;;;6.50;5.90;;;;;;;9.88;67.87;95567.41;5101085;28;20547;-69
2022/10/16 00:24:00;;;;;;;6.57;5.97;;;;;;;9.88;67.81;95572.91;5100896;28;20199;-69
2022/10/16 00:26:27;;;;;;;7.80;6.30;;;;;;;9.81;67.54;95569.88;5101022;28;20223;-69
2022/10/16 00:28:54;;;;;;;7.75;6.28;;;;;;;9.78;67.42;95568.59;5101101;28;20192;-68
2022/10/16 00:31:22;;;;;;;7.47;6.78;;;;;;;9.74;67.46;95575.94;5100853;28;20199;-69
2022/10/16 00:33:49;;;;;;;7.13;5.97;;;;;;;9.75;67.43;95573.97;5118429;28;20196;-69
2022/10/16 00:36:18;;;;;;;7.45;5.82;;;;;;;9.71;67.25;95573.03;5118392;28;20524;-69
2022/10/16 00:38:47;;;;;;;6.40;5.70;;;;;;;9.64;67.37;95573.56;5118570;28;20215;-69
2022/10/16 00:41:16;;;;;;;6.75;6.15;;;;;;;9.61;67.70;95580.53;5100705;28;20196;-69
2022/10/16 00:43:44;;;;;;;6.97;5.78;;;;;;;9.64;67.70;95574.38;5118657;28;20188;-69
2022/10/16 00:46:16;;;;;;;6.38;5.78;;;;;;;9.66;67.61;95571.28;5118056;28;20195;-68
2022/10/16 00:48:45;;;;;;;6.30;5.70;;;;;;;9.62;67.38;95573.91;5118493;28;20199;-68
2022/10/16 00:51:12;;;;;;;6.97;6.30;;;;;;;9.61;67.69;95566.78;5100631;28;20196;-69
2022/10/16 00:53:39;;;;;;;8.90;6.32;;;;;;;9.59;67.71;95568.28;5107752;27;20230;-68
2022/10/16 00:56:07;;;;;;;7.65;6.80;;;;;;;9.52;67.78;95566.03;5120850;27;20720;-68
2022/10/16 00:58:34;;;;;;;6.82;5.90;;;;;;;9.47;67.79;95568.16;5139025;27;20235;-68
2022/10/16 01:01:01;;;;;;;6.85;5.88;;;;;;;9.49;67.76;95569.44;5120828;27;20191;-68
2022/10/16 01:03:30;;;;;;;6.78;6.10;;;;;;;9.52;67.70;95568.78;5120798;27;20202;-68
2022/10/16 01:06:17;;;;;;;6.40;5.75;;;;;;;9.48;67.56;95572.56;5120866;27;20191;-69
2022/10/16 01:08:52;;;;;;;6.60;6.00;;;;;;;9.50;67.50;95578.53;5135583;27;20211;-69
2022/10/16 01:11:23;;;;;;;6.53;5.93;;;;;;;9.44;67.40;95574.34;5138645;27;20201;-69
2022/10/16 01:13:54;;;;;;;6.13;5.60;;;;;;;9.42;67.47;95580.19;5138819;27;20199;-69
2022/10/16 01:16:28;;;;;;;6.78;6.10;;;;;;;9.40;67.34;95587.97;5138923;27;20199;-69
2022/10/16 01:18:58;;;;;;;6.72;6.05;;;;;;;9.39;67.55;95578.91;5120638;27;20211;-69
2022/10/16 01:21:27;;;;;;;6.55;5.80;;;;;;;9.39;67.54;95576.16;5138611;27;20180;-69
2022/10/16 01:24:03;;;;;;;6.38;5.75;;;;;;;9.38;67.31;95570.97;5120310;27;20198;-69
2022/10/16 01:26:38;;;;;;;6.95;6.32;;;;;;;9.34;67.30;95565.34;5138495;27;20179;-69
2022/10/16 01:29:10;;;;;;;6.88;6.28;;;;;;;9.34;67.37;95561.78;5138016;27;20190;-69
2022/10/16 01:31:40;;;;;;;6.72;5.95;;;;;;;9.32;67.25;95562.09;5138290;27;20179;-69
2022/10/16 01:34:11;;;;;;;5.97;5.47;;;;;;;9.30;67.08;95564.38;5120568;27;20511;-69
2022/10/16 01:36:40;;;;;;;7.28;5.85;;;;;;;9.31;67.11;95566.00;5120255;27;20188;-69
2022/10/16 01:39:10;;;;;;;6.28;5.78;;;;;;;9.24;66.80;95575.91;5120195;27;20226;-69
2022/10/16 01:41:40;;;;;;;6.85;6.15;;;;;;;9.18;67.22;95572.53;5119993;27;20629;-69
2022/10/16 01:44:11;;;;;;;7.55;6.75;;;;;;;9.15;67.21;95568.53;5120136;27;20195;-69
2022/10/16 01:46:40;;;;;;;7.88;7.00;;;;;;;9.12;67.42;95573.88;5138135;27;20183;-69
2022/10/16 01:49:08;;;;;;;6.78;6.18;;;;;;;9.06;67.59;95573.25;5119612;27;20199;-69
2022/10/16 01:51:36;;;;;;;6.85;6.22;;;;;;;9.04;67.68;95582.97;5120037;27;20191;-69
2022/10/16 01:54:03;;;;;;;7.75;6.68;;;;;;;9.06;67.73;95587.00;5116304;28;20674;-68
2022/10/16 01:56:30;;;;;;;7.60;6.90;;;;;;;9.05;67.61;95579.09;5119402;27;20199;-68
2022/10/16 01:59:01;;;;;;;7.57;6.80;;;;;;;9.05;67.52;95581.84;5118995;27;20211;-68
2022/10/16 02:01:31;;;;;;;7.90;7.20;;;;;;;8.95;67.56;95590.47;5119761;27;20199;-68
2022/10/16 02:04:03;;;;;;;7.80;7.00;;;;;;;8.94;67.86;95586.09;5137394;27;20179;-68
2022/10/16 02:06:30;;;;;;;7.90;6.80;;;;;;;8.97;67.98;95591.75;5137275;27;20199;-68
2022/10/16 02:08:59;;;;;;;8.00;6.80;;;;;;;8.97;67.53;95589.00;5119760;27;20198;-68
2022/10/16 02:11:26;;;;;;;8.52;7.18;;;;;;;8.89;67.28;95590.63;5137608;27;20183;-68
2022/10/16 02:13:55;;;;;;;7.13;6.03;;;;;;;8.86;67.87;95594.06;5119544;27;20202;-68
2022/10/16 02:16:22;;;;;;;6.82;6.05;;;;;;;8.92;68.03;95600.16;5119518;27;20203;-68
2022/10/16 02:18:50;;;;;;;6.80;6.10;;;;;;;8.92;68.03;95602.91;5137313;27;20202;-68
2022/10/16 02:21:22;;;;;;;7.07;6.00;;;;;;;8.91;68.01;95609.56;5119199;27;20205;-68
2022/10/16 02:23:54;;;;;;;6.40;5.80;;;;;;;8.94;68.21;95606.16;5137592;27;20191;-68
2022/10/16 02:26:32;;;;;;;7.10;6.15;;;;;;;8.93;67.91;95618.28;5119747;27;20206;-69
2022/10/16 02:29:04;;;;;;;6.95;6.28;;;;;;;8.95;68.07;95613.28;5137294;27;20203;-69
2022/10/16 02:31:34;;;;;;;7.45;6.55;;;;;;;8.95;67.88;95612.47;5119018;27;20203;-69
2022/10/16 02:34:04;;;;;;;6.90;6.30;;;;;;;8.92;67.80;95611.19;5137168;27;20285;-69
2022/10/16 02:36:32;;;;;;;6.78;6.18;;;;;;;8.88;67.57;95612.97;5137116;27;20195;-69
2022/10/16 02:38:59;;;;;;;6.95;6.00;;;;;;;8.76;67.67;95612.84;5119053;27;20211;-69
2022/10/16 02:41:27;;;;;;;6.45;5.85;;;;;;;8.78;67.60;95610.56;5118719;27;20622;-69
2022/10/16 02:43:54;;;;;;;7.35;5.63;;;;;;;8.73;67.69;95619.81;5136981;27;20187;-69
2022/10/16 02:46:21;;;;;;;6.95;6.00;;;;;;;8.65;67.78;95615.16;5118749;27;20195;-68
2022/10/16 02:48:48;;;;;;;7.75;5.88;;;;;;;8.63;68.25;95623.72;5136829;27;20183;-69
2022/10/16 02:51:17;;;;;;;6.45;5.85;;;;;;;8.63;68.36;95629.22;5136585;27;20175;-69
2022/10/16 02:53:43;;;;;;;6.97;6.25;;;;;;;8.66;68.70;95630.50;5118712;27;20249;-69
2022/10/16 02:56:10;;;;;;;5.90;5.32;;;;;;;8.69;68.63;95632.59;5136777;27;20187;-68
2022/10/16 02:58:37;;;;;;;7.15;6.32;;;;;;;8.72;68.49;95628.41;5136790;27;20282;-68
2022/10/16 03:01:04;;;;;;;6.78;5.85;;;;;;;8.72;68.16;95625.66;5119101;27;20201;-68
2022/10/16 03:03:31;;;;;;;6.72;6.10;;;;;;;8.71;67.81;95630.31;5118616;27;20198;-68
2022/10/16 03:05:58;;;;;;;6.50;5.90;;;;;;;8.70;67.89;95630.66;5118868;27;20195;-68
2022/10/16 03:08:26;;;;;;;8.38;6.88;;;;;;;8.64;68.06;95633.59;5118376;27;20206;-68
2022/10/16 03:10:53;;;;;;;7.97;7.18;;;;;;;8.61;67.76;95627.94;5136816;27;20201;-68
2022/10/16 03:13:21;;;;;;;7.72;7.03;;;;;;;8.62;67.96;95633.09;5118225;27;20190;-68
2022/10/16 03:15:48;;;;;;;8.13;7.43;;;;;;;8.58;67.80;95636.84;5136814;27;20289;-68
2022/10/16 03:18:15;;;;;;;8.10;7.13;;;;;;;8.53;67.75;95632.28;5136482;27;20203;-68
2022/10/16 03:20:43;;;;;;;7.97;7.10;;;;;;;8.49;68.18;95630.53;5136579;27;20187;-68
2022/10/16 03:23:10;;;;;;;8.35;6.78;;;;;;;8.50;68.03;95634.91;5136181;27;20194;-68
2022/10/16 03:25:38;;;;;;;7.93;6.93;;;;;;;8.51;68.07;95642.81;5136539;27;20183;-67
2022/10/16 03:28:05;;;;;;;7.18;6.55;;;;;;;8.50;68.11;95645.91;5136177;27;20202;-68
2022/10/16 03:30:32;;;;;;;8.52;6.55;;;;;;;8.47;68.32;95641.88;5118028;28;20199;-68
2022/10/16 03:32:59;;;;;;;7.13;6.53;;;;;;;8.42;68.25;95647.50;5135904;28;20191;-68
2022/10/16 03:35:26;;;;;;;7.97;6.88;;;;;;;8.44;68.12;95648.00;5135786;28;20187;-68
2022/10/16 03:37:53;;;;;;;8.18;7.22;;;;;;;8.49;68.14;95649.78;5136040;28;20206;-68
2022/10/16 03:40:20;;;;;;;8.18;7.38;;;;;;;8.45;67.74;95646.88;5135823;28;20195;-67
2022/10/16 03:42:48;;;;;;;7.63;6.82;;;;;;;8.41;67.88;95651.41;5136103;28;20194;-68
2022/10/16 03:45:15;;;;;;;8.13;7.25;;;;;;;8.41;67.62;95648.66;5117928;28;20199;-67
2022/10/16 03:47:42;;;;;;;9.13;7.15;;;;;;;8.40;67.72;95641.56;5118034;28;20187;-68
2022/10/16 03:50:09;;;;;;;8.18;6.80;;;;;;;8.39;68.00;95642.69;5136007;28;20183;-68
2022/10/16 03:52:36;;;;;;;7.85;6.60;;;;;;;8.37;67.76;95639.41;5136233;28;20210;-68
2022/10/16 03:55:03;;;;;;;8.13;7.43;;;;;;;8.34;67.63;95638.13;5116616;28;20269;-68
2022/10/16 03:57:29;;;;;;;7.20;6.50;;;;;;;8.28;67.69;95642.19;5097437;28;20183;-68
2022/10/16 03:59:58;;;;;;;6.95;6.35;;;;;;;8.21;67.68;95639.09;5097111;28;20215;-70
2022/10/16 04:02:24;;;;;;;8.35;6.60;;;;;;;8.16;68.09;95628.25;5097627;28;20208;-68
2022/10/16 04:04:51;;;;;;;7.72;7.03;;;;;;;8.11;68.47;95636.69;5115286;28;20258;-68
2022/10/16 04:07:18;;;;;;;11.82;10.40;;;;;;;8.16;68.60;95640.06;5115260;28;20188;-68
2022/10/16 04:09:45;;;;;;;8.82;7.57;;;;;;;8.15;68.30;95638.44;5114950;28;20206;-68
2022/10/16 04:12:11;;;;;;;9.38;7.35;;;;;;;8.14;68.30;95636.03;5096969;28;20191;-68
2022/10/16 04:14:38;;;;;;;8.57;6.75;;;;;;;8.14;68.24;95639.59;5115248;28;20210;-68
2022/10/16 04:17:07;;;;;;;8.70;7.13;;;;;;;8.11;68.43;95642.19;5097447;28;20203;-68
2022/10/16 04:19:33;;;;;;;9.73;7.10;;;;;;;8.14;68.46;95642.34;5114691;28;20203;-68
2022/10/16 04:22:00;;;;;;;7.70;7.00;;;;;;;8.13;68.22;95643.47;5118377;28;20203;-67
2022/10/16 04:24:27;;;;;;;8.82;7.38;;;;;;;8.10;68.09;95643.31;5101029;28;20191;-69
2022/10/16 04:26:54;;;;;;;8.82;7.40;;;;;;;8.04;68.35;95645.41;5118587;28;20199;-68
2022/10/16 04:29:20;;;;;;;8.63;7.63;;;;;;;8.02;68.96;95639.41;5118906;28;20187;-68
2022/10/16 04:31:47;;;;;;;11.93;8.43;;;;;;;8.04;68.86;95647.34;5101187;28;20197;-68
2022/10/16 04:34:16;;;;;;;8.75;7.32;;;;;;;8.07;68.83;95646.72;5100987;28;20196;-68
2022/10/16 04:36:42;;;;;;;8.90;7.30;;;;;;;8.07;68.88;95654.94;5101126;28;20202;-68
2022/10/16 04:39:09;;;;;;;9.00;8.07;;;;;;;8.04;68.56;95655.59;5118752;28;20226;-69
2022/10/16 04:41:36;;;;;;;8.85;7.68;;;;;;;8.02;68.61;95655.88;5118400;28;20188;-68
2022/10/16 04:44:03;;;;;;;8.75;7.82;;;;;;;8.04;68.77;95661.88;5101019;28;20195;-69
2022/10/16 04:46:29;;;;;;;7.80;7.10;;;;;;;8.05;68.25;95663.50;5118701;28;20248;-69
2022/10/16 04:48:56;;;;;;;11.35;8.27;;;;;;;8.06;68.06;95661.56;5100611;28;20196;-69
2022/10/16 04:51:25;;;;;;;8.63;7.72;;;;;;;8.05;68.20;95665.44;5118460;28;20184;-68
2022/10/16 04:53:52;;;;;;;8.05;6.88;;;;;;;7.97;68.25;95670.59;5118118;28;20242;-69
2022/10/16 04:56:20;;;;;;;8.93;7.63;;;;;;;7.96;68.57;95669.00;5118239;28;20245;-69
2022/10/16 04:58:47;;;;;;;10.05;8.32;;;;;;;7.92;68.30;95683.69;5100360;28;20594;-68
2022/10/16 05:01:14;;;;;;;8.10;7.38;;;;;;;7.90;68.65;95683.19;5100661;28;20200;-68
2022/10/16 05:03:40;;;;;;;9.85;8.13;;;;;;;7.92;68.38;95686.44;5118279;28;20191;-68
2022/10/16 05:06:08;;;;;;;10.40;8.60;;;;;;;7.91;68.61;95690.28;5118220;28;20262;-68
2022/10/16 05:08:36;;;;;;;11.20;8.35;;;;;;;7.87;68.63;95683.84;5117931;28;20190;-68
2022/10/16 05:11:03;;;;;;;9.43;8.25;;;;;;;7.84;68.44;95692.72;5100345;28;20203;-68
2022/10/16 05:13:30;;;;;;;10.15;8.25;;;;;;;7.84;68.77;95692.72;5099779;28;20196;-68
2022/10/16 05:15:56;;;;;;;9.27;8.20;;;;;;;7.86;68.79;95694.00;5100257;28;20203;-68
2022/10/16 05:18:23;;;;;;;9.93;7.90;;;;;;;7.87;68.74;95686.56;5100026;28;20200;-68
2022/10/16 05:20:50;;;;;;;8.65;7.85;;;;;;;7.88;69.27;95700.00;5099746;28;20188;-69
2022/10/16 05:23:17;;;;;;;8.95;8.05;;;;;;;7.88;69.29;95700.00;5117989;28;20195;-68
2022/10/16 05:25:53;;;;;;;8.88;8.05;;;;;;;7.88;69.26;95696.44;5099689;28;20194;-69
2022/10/16 05:28:19;;;;;;;9.15;8.25;;;;;;;7.92;69.47;95698.22;5117555;28;20476;-69
2022/10/16 05:30:46;;;;;;;9.07;7.78;;;;;;;7.95;69.32;95703.09;5100107;28;20199;-68
2022/10/16 05:33:13;;;;;;;8.85;7.78;;;;;;;8.02;69.44;95696.28;5117713;28;20191;-69
2022/10/16 05:35:40;;;;;;;10.00;8.50;;;;;;;7.98;69.63;95712.59;5117356;28;20516;-68
2022/10/16 05:38:07;;;;;;;9.30;8.40;;;;;;;7.97;69.68;95700.81;5117423;28;20191;-69
2022/10/16 05:40:33;;;;;;;9.40;8.40;;;;;;;7.99;69.84;95702.44;5099863;28;20216;-67
2022/10/16 05:43:02;;;;;;;10.13;9.13;;;;;;;8.02;70.07;95708.09;5117618;28;20188;-68
2022/10/16 05:45:28;;;;;;;14.65;10.85;;;;;;;8.03;70.33;95712.47;5099210;28;20211;-68
2022/10/16 05:47:55;;;;;;;13.20;10.50;;;;;;;8.06;70.24;95716.50;5117614;28;20188;-70
2022/10/16 05:50:22;;;;;;;13.48;10.57;;;;;;;8.08;70.70;95720.56;5117661;28;20184;-69
2022/10/16 05:52:49;;;;;;;11.55;9.73;;;;;;;8.12;70.36;95712.47;5117336;28;20211;-70
2022/10/16 05:55:16;;;;;;;12.00;9.73;;;;;;;8.12;70.79;95721.53;5137594;27;20633;-69
2022/10/16 05:57:42;;;;;;;13.57;10.45;;;;;;;8.17;71.50;95723.31;5137538;27;20191;-69
2022/10/16 06:00:12;;;;;;;25.23;12.48;;;;;;;8.25;71.38;95727.22;5119444;27;20215;-69
2022/10/16 06:02:39;;;;;;;15.18;13.57;;;;;;;8.31;71.49;95723.16;5118876;27;20666;-69
2022/10/16 06:05:06;;;;;;;16.85;15.05;;;;;;;8.34;71.50;95731.56;5137478;27;20186;-70
2022/10/16 06:07:35;;;;;;;18.45;16.00;;;;;;;8.39;71.43;95733.41;5137403;27;20179;-69
2022/10/16 06:10:02;;;;;;;18.85;16.85;;;;;;;8.42;71.63;95738.22;5120000;27;20202;-69
2022/10/16 06:12:29;;;;;;;21.05;18.70;;;;;;;8.46;71.70;95739.22;5137502;27;20175;-69
2022/10/16 06:14:56;;;;;;;22.17;19.50;;;;;;;8.55;71.93;95740.03;5137321;27;20598;-69
2022/10/16 06:17:24;;;;;;;20.27;18.27;;;;;;;8.61;71.93;95746.97;5119362;27;20199;-69
2022/10/16 06:19:51;;;;;;;21.13;18.85;;;;;;;8.65;72.07;95744.41;5118959;27;20229;-69
2022/10/16 06:22:18;;;;;;;21.02;18.73;;;;;;;8.71;72.41;95748.56;5137454;27;20187;-69
2022/10/16 06:24:46;;;;;;;14.75;13.25;;;;;;;8.75;71.86;95752.31;5119300;27;20191;-69
2022/10/16 06:27:13;;;;;;;13.52;11.63;;;;;;;8.80;71.88;95756.84;5119116;27;20199;-69
2022/10/16 06:29:39;;;;;;;11.68;10.43;;;;;;;8.83;71.65;95758.94;5137197;27;20261;-69
2022/10/16 06:32:06;;;;;;;12.02;10.80;;;;;;;8.87;71.47;95752.47;5136986;27;20187;-69
2022/10/16 06:34:34;;;;;;;11.63;10.52;;;;;;;8.91;71.65;95760.88;5119222;27;20198;-69
2022/10/16 06:37:01;;;;;;;11.52;10.32;;;;;;;8.95;71.78;95755.53;5137200;27;20191;-69
2022/10/16 06:39:28;;;;;;;12.23;10.93;;;;;;;9.01;71.66;95763.28;5118832;27;20219;-69
2022/10/16 06:41:54;;;;;;;13.15;11.32;;;;;;;9.07;71.45;95763.91;5118750;27;20202;-70
2022/10/16 06:44:21;;;;;;;12.75;11.55;;;;;;;9.12;71.40;95767.31;5118590;27;20211;-69
2022/10/16 06:46:48;;;;;;;12.90;11.60;;;;;;;9.22;71.74;95768.09;5119275;27;20206;-69
2022/10/16 06:49:21;;;;;;;11.73;10.15;;;;;;;9.32;71.73;95774.06;5119010;27;20187;-69
2022/10/16 06:51:49;;;;;;;11.73;10.57;;;;;;;9.41;71.57;95774.06;5119562;27;20589;-69
2022/10/16 06:54:17;;;;;;;9.98;9.18;;;;;;;9.51;71.61;95775.63;5118435;27;20238;-70
2022/10/16 06:56:44;;;;;;;10.50;9.40;;;;;;;9.58;71.93;95779.50;5136709;27;20187;-69
2022/10/16 06:59:11;;;;;;;11.85;10.43;;;;;;;9.65;71.51;95781.75;5136480;27;20175;-69
2022/10/16 07:01:38;;;;;;;11.32;10.20;;;;;;;9.72;71.22;95786.75;5136682;27;20217;-69
2022/10/16 07:04:04;;;;;;;11.20;10.10;;;;;;;9.80;70.92;95783.13;5136624;27;20191;-69
2022/10/16 07:06:33;;;;;;;41.38;37.60;;;;;;;9.87;71.34;95791.69;5136618;27;20194;-69
2022/10/16 07:09:03;;;;;;;36.85;33.45;;;;;;;9.94;71.11;95786.47;5136399;27;20203;-69
2022/10/16 07:11:30;;;;;;;28.65;25.73;;;;;;;10.01;71.27;95783.22;5136225;27;20186;-69
2022/10/16 07:13:57;;;;;;;25.58;23.27;;;;;;;10.07;70.97;95788.22;5119032;27;20198;-69
2022/10/16 07:16:26;;;;;;;26.45;23.80;;;;;;;10.11;70.55;95791.91;5118410;28;20211;-69
2022/10/16 07:18:57;;;;;;;28.00;25.20;;;;;;;10.18;70.83;95798.88;5118445;27;20191;-69
2022/10/16 07:21:25;;;;;;;22.85;20.58;;;;;;;10.26;70.99;95787.00;5118439;27;20207;-69
2022/10/16 07:23:52;;;;;;;18.95;16.50;;;;;;;10.36;70.77;95792.13;5136120;27;20232;-68
2022/10/16 07:26:20;;;;;;;15.30;13.75;;;;;;;10.47;70.66;95789.81;5118302;27;20195;-69
2022/10/16 07:28:47;;;;;;;16.00;14.40;;;;;;;10.55;69.95;95788.94;5136001;27;20598;-68
2022/10/16 07:31:15;;;;;;;14.23;12.55;;;;;;;10.65;69.85;95787.72;5136154;27;20171;-69
2022/10/16 07:33:44;;;;;;;13.15;11.63;;;;;;;10.73;69.55;95795.94;5118946;28;20195;-69
2022/10/16 07:36:11;;;;;;;11.35;10.13;;;;;;;10.80;68.59;95798.97;5118520;28;20294;-69
2022/10/16 07:38:38;;;;;;;12.13;10.95;;;;;;;10.84;68.04;95790.81;5118475;28;20202;-69
2022/10/16 07:41:06;;;;;;;11.63;10.52;;;;;;;10.90;67.97;95792.25;5118214;28;20236;-69
2022/10/16 07:43:34;;;;;;;10.75;9.60;;;;;;;10.99;67.87;95792.16;5135936;28;20595;-69
2022/10/16 07:46:04;;;;;;;11.70;10.50;;;;;;;11.09;68.67;95789.78;5118458;28;20191;-69
2022/10/16 07:48:32;;;;;;;11.25;10.15;;;;;;;11.24;68.27;95790.31;5118245;28;20199;-69
2022/10/16 07:51:00;;;;;;;11.18;10.07;;;;;;;11.32;67.14;95800.47;5135948;28;20183;-69
2022/10/16 07:53:27;;;;;;;11.23;10.13;;;;;;;11.39;67.14;95799.91;5117702;28;20599;-69
2022/10/16 07:55:56;;;;;;;12.10;11.00;;;;;;;11.50;67.02;95804.66;5118897;27;20705;-69
2022/10/16 07:58:23;;;;;;;11.45;10.35;;;;;;;11.62;67.19;95805.84;5139791;27;20194;-69
2022/10/16 08:00:51;;;;;;;11.50;9.98;;;;;;;11.74;66.75;95808.66;5121869;27;20211;-69
2022/10/16 08:03:18;;;;;;;11.52;10.32;;;;;;;11.83;65.94;95801.06;5121986;27;20198;-69
2022/10/16 08:05:45;;;;;;;11.65;10.52;;;;;;;11.91;65.41;95804.88;5140017;27;20623;-68
2022/10/16 08:08:14;;;;;;;13.70;10.73;;;;;;;11.97;65.28;95806.28;5140117;27;20195;-68
2022/10/16 08:10:41;;;;;;;13.23;10.90;;;;;;;12.03;64.83;95805.72;5122165;27;20195;-68
2022/10/16 08:13:08;;;;;;;11.88;10.68;;;;;;;12.13;63.78;95807.25;5141373;27;20175;-69
2022/10/16 08:15:36;;;;;;;11.88;10.77;;;;;;;12.17;64.00;95805.41;5140856;27;20194;-70
2022/10/16 08:18:06;;;;;;;11.45;10.23;;;;;;;12.26;63.62;95803.31;5139951;27;20188;-68
2022/10/16 08:20:33;;;;;;;10.82;9.73;;;;;;;12.38;63.23;95796.97;5121918;27;20219;-69
2022/10/16 08:23:00;;;;;;;10.60;9.35;;;;;;;12.45;62.22;95799.94;5122189;27;20198;-69
2022/10/16 08:25:27;;;;;;;10.45;9.35;;;;;;;12.60;62.67;95797.63;5121894;27;20191;-69
2022/10/16 08:27:55;;;;;;;10.98;9.32;;;;;;;12.69;62.44;95795.56;5140167;27;20194;-68
2022/10/16 08:30:23;;;;;;;9.30;8.43;;;;;;;12.81;61.75;95792.75;5121911;27;20521;-68
2022/10/16 08:32:50;;;;;;;9.88;8.75;;;;;;;12.91;61.01;95792.25;5139710;27;20218;-68
2022/10/16 08:35:18;;;;;;;9.65;8.50;;;;;;;13.05;61.08;95793.84;5121268;27;20209;-68
2022/10/16 08:37:45;;;;;;;9.13;8.20;;;;;;;13.16;61.10;95794.97;5122334;27;20210;-68
2022/10/16 08:40:18;;;;;;;13.60;8.20;;;;;;;13.25;60.66;95790.09;5121365;27;20305;-68
2022/10/16 08:42:57;;;;;;;10.40;8.52;;;;;;;13.40;60.42;95786.59;5139410;27;20187;-69
2022/10/16 08:45:38;;;;;;;8.60;7.80;;;;;;;13.52;60.38;95784.91;5121327;27;20195;-69
2022/10/16 08:48:18;;;;;;;7.53;6.78;;;;;;;13.64;60.23;95791.19;5139738;27;20198;-68
2022/10/16 08:50:47;;;;;;;7.40;6.60;;;;;;;13.78;59.35;95793.53;5139379;27;20198;-68
2022/10/16 08:53:18;;;;;;;7.72;6.75;;;;;;;13.91;58.82;95788.72;5135713;27;20231;-68
2022/10/16 08:55:47;;;;;;;6.28;5.70;;;;;;;13.98;57.73;95794.47;5118666;28;20191;-68
2022/10/16 08:58:16;;;;;;;5.70;5.20;;;;;;;14.01;57.28;95790.94;5100821;28;20223;-68
2022/10/16 09:00:45;;;;;;;6.60;5.90;;;;;;;14.11;58.62;95795.97;5100901;28;20219;-68
2022/10/16 09:03:23;;;;;;;6.70;6.10;;;;;;;14.34;57.85;95789.78;5100530;28;20195;-68
2022/10/16 09:06:07;;;;;;;6.95;5.75;;;;;;;14.53;57.35;95797.41;5100668;28;20203;-69
2022/10/16 09:08:40;;;;;;;6.53;5.85;;;;;;;14.60;56.14;95792.03;5118287;28;20187;-68
2022/10/16 09:11:11;;;;;;;5.35;4.85;;;;;;;14.65;54.41;95798.09;5118050;28;20210;-69
2022/10/16 09:13:45;;;;;;;5.65;4.45;;;;;;;14.71;54.71;95783.94;5118029;28;20187;-69
2022/10/16 09:16:17;;;;;;;5.40;4.90;;;;;;;14.80;53.82;95781.75;5118291;28;20195;-69
2022/10/16 09:18:49;;;;;;;5.40;5.00;;;;;;;14.90;53.33;95782.00;5100588;28;20195;-69
2022/10/16 09:21:22;;;;;;;4.75;4.35;;;;;;;14.96;52.69;95781.69;5100150;28;20207;-68
2022/10/16 09:23:49;;;;;;;4.65;4.25;;;;;;;15.00;52.31;95780.63;5100294;28;20199;-68
2022/10/16 09:26:17;;;;;;;4.47;4.05;;;;;;;15.09;52.86;95783.19;5100145;28;20225;-68
2022/10/16 09:28:44;;;;;;;5.07;4.50;;;;;;;15.22;52.80;95784.66;5118066;28;20188;-68
2022/10/16 09:31:17;;;;;;;5.15;4.32;;;;;;;15.40;52.65;95780.25;5099735;28;20188;-68
2022/10/16 09:33:45;;;;;;;4.30;3.88;;;;;;;15.48;50.95;95788.75;5117848;28;20184;-68
2022/10/16 09:36:12;;;;;;;5.05;4.57;;;;;;;15.57;51.23;95783.75;5117694;28;20187;-68
2022/10/16 09:38:40;;;;;;;5.63;4.65;;;;;;;15.70;50.56;95788.00;5117900;28;20627;-68
2022/10/16 09:41:16;;;;;;;5.13;4.25;;;;;;;15.74;49.58;95786.09;5117367;28;20627;-68
2022/10/16 09:43:48;;;;;;;4.22;3.83;;;;;;;15.79;49.80;95783.00;5100120;28;20194;-68
2022/10/16 09:46:23;;;;;;;4.53;3.72;;;;;;;15.89;49.69;95778.81;5117321;28;20184;-68
2022/10/16 09:48:52;;;;;;;4.75;3.88;;;;;;;15.98;50.09;95775.81;5099881;28;20198;-68
2022/10/16 09:51:23;;;;;;;3.78;3.42;;;;;;;16.01;49.96;95772.25;5117476;28;20184;-68
2022/10/16 09:53:56;;;;;;;4.47;3.88;;;;;;;16.09;48.42;95769.25;5117104;28;20227;-69
2022/10/16 09:56:26;;;;;;;4.22;3.83;;;;;;;16.11;47.36;95761.31;5117378;28;20176;-68
2022/10/16 09:58:54;;;;;;;3.85;3.55;;;;;;;16.17;46.80;95766.59;5099317;28;20630;-68
2022/10/16 10:01:22;;;;;;;5.38;3.72;;;;;;;16.24;47.60;95773.06;5099262;28;20219;-68
2022/10/16 10:03:49;;;;;;;4.50;4.13;;;;;;;16.32;48.01;95769.22;5116930;28;20184;-69
2022/10/16 10:06:23;;;;;;;3.92;3.63;;;;;;;16.36;47.73;95766.50;5117654;28;20188;-68
2022/10/16 10:08:57;;;;;;;4.13;3.75;;;;;;;16.45;46.22;95769.84;5117359;28;20252;-68
2022/10/16 10:11:43;;;;;;;4.28;3.63;;;;;;;16.52;46.61;95761.59;5099341;28;20191;-68
2022/10/16 10:14:18;;;;;;;4.53;4.05;;;;;;;16.53;47.02;95754.03;5117357;28;20187;-69
2022/10/16 10:16:45;;;;;;;5.28;3.95;;;;;;;16.55;45.45;95765.59;5117015;28;20194;-69
2022/10/16 10:19:15;;;;;;;3.85;3.55;;;;;;;16.62;45.82;95760.13;5098207;28;20188;-69
2022/10/16 10:21:42;;;;;;;5.10;3.58;;;;;;;16.66;46.12;95760.97;5099022;28;20547;-69
2022/10/16 10:24:13;;;;;;;3.80;3.30;;;;;;;16.73;45.42;95755.50;5117033;28;20191;-68
2022/10/16 10:26:45;;;;;;;5.43;3.80;;;;;;;16.73;45.87;95757.50;5108716;28;20212;-68
2022/10/16 10:29:17;;;;;;;5.40;4.32;;;;;;;16.76;47.03;95754.00;5099020;28;20196;-68
2022/10/16 10:31:48;;;;;;;4.28;3.70;;;;;;;16.84;45.36;95748.13;5098473;28;20596;-68
2022/10/16 10:34:26;;;;;;;4.68;4.28;;;;;;;16.89;45.75;95743.44;5098877;28;20200;-69
2022/10/16 10:36:58;;;;;;;5.30;3.78;;;;;;;16.84;45.35;95745.34;5098782;28;20541;-68
2022/10/16 10:39:31;;;;;;;4.22;3.83;;;;;;;16.79;46.31;95737.34;5116390;28;20214;-68
2022/10/16 10:42:24;;;;;;;4.85;3.83;;;;;;;16.82;45.73;95736.59;5116455;28;20203;-68
2022/10/16 10:44:58;;;;;;;6.95;3.80;;;;;;;16.94;46.56;95727.19;5092232;28;20202;-68
2022/10/16 10:47:32;;;;;;;4.32;3.92;;;;;;;17.02;45.34;95725.28;5098387;28;20242;-68
2022/10/16 10:50:09;;;;;;;5.53;4.03;;;;;;;17.05;45.51;95728.13;5116344;28;20203;-68
2022/10/16 10:52:43;;;;;;;3.90;3.60;;;;;;;17.11;43.21;95725.00;5098361;28;20191;-68
2022/10/16 10:55:18;;;;;;;4.20;3.78;;;;;;;17.02;42.79;95725.28;5115933;28;20234;-69
2022/10/16 10:57:55;;;;;;;4.10;3.67;;;;;;;16.98;43.11;95727.22;5098318;28;20520;-67
2022/10/16 11:00:29;;;;;;;4.10;3.50;;;;;;;16.96;41.79;95732.38;5098242;28;20640;-67
2022/10/16 11:03:00;;;;;;;3.60;3.30;;;;;;;16.94;43.12;95721.59;5115859;28;20180;-67
2022/10/16 11:05:40;;;;;;;3.40;3.10;;;;;;;16.99;43.46;95717.69;5098223;28;20200;-67
2022/10/16 11:08:12;;;;;;;3.88;3.58;;;;;;;17.05;42.37;95714.19;5116071;28;20179;-67
2022/10/16 11:10:45;;;;;;;3.63;3.08;;;;;;;17.04;42.01;95712.59;5098406;28;20196;-67
2022/10/16 11:13:20;;;;;;;5.55;3.33;;;;;;;17.11;41.79;95709.09;5098181;28;20661;-67
2022/10/16 11:15:48;;;;;;;3.60;3.30;;;;;;;17.14;42.34;95708.34;5116078;28;20183;-67
2022/10/16 11:18:19;;;;;;;4.18;3.35;;;;;;;17.19;42.73;95701.63;5098322;28;20188;-67
2022/10/16 11:20:50;;;;;;;3.65;3.35;;;;;;;17.23;43.15;95697.69;5098130;28;20215;-67
2022/10/16 11:23:22;;;;;;;3.88;3.50;;;;;;;17.30;41.62;95703.34;5115687;28;20187;-67
2022/10/16 11:25:51;;;;;;;3.38;3.10;;;;;;;17.25;41.82;95697.31;5098682;28;20199;-67
2022/10/16 11:28:21;;;;;;;3.38;3.08;;;;;;;17.24;41.49;95693.69;5115530;28;20183;-67
2022/10/16 11:30:50;;;;;;;3.65;3.35;;;;;;;17.22;41.21;95692.50;5115774;28;20206;-67
2022/10/16 11:33:31;;;;;;;3.80;3.40;;;;;;;17.18;41.06;95692.44;5115754;28;20245;-67
2022/10/16 11:36:02;;;;;;;4.70;4.22;;;;;;;17.20;42.48;95690.06;5097969;28;20199;-68
2022/10/16 11:38:33;;;;;;;4.03;3.67;;;;;;;17.24;41.74;95688.13;5115830;28;20195;-67
2022/10/16 11:41:05;;;;;;;4.65;4.07;;;;;;;17.28;43.18;95693.72;5115747;28;20215;-67
2022/10/16 11:43:37;;;;;;;4.35;3.92;;;;;;;17.30;43.19;95692.19;5115250;28;20523;-67